Foster, Wisconsin
Current Conditions -  °F | °C
As of 4:56 PM on Thursday 20 Nov 2014 (Local Time) from KEAU Reporting Station
Clear Clear  
Wind Chill:   Ceiling: Unl
Heat Index: 13°   Visibility: 10mi
Dew Point: -2°   Wind: 8mph
Humidity: 51%   Direction: 300°WNW
Pressure: 30.16"   Gusts: NA
Location:  44.5464°N, 91.2123°W
Report Text: KEAU 202256Z 30007KT 10SM CLR M11/M19 A3016 RMK AO2 SLP231 T11061189
Loading
Personal Weather Stations






























Interactive Weather Map New forecast layout! Learn more

10-Day Weather Forecast

Advertisements
Track Severe Weather on mobile